Hlavní strana
METAR-TAF:

METAR-TAF

Letiště :

Kuressaare, Estonsko

zeměpisná šířka: 58-13-48N, zeměpisná délka: 022-30-34E, výška: 4 m

Aktuální stav počasí

Zpráva byla vytvořena před 1 hodinou a 9 minutami, v 01:50 UTC
Jihojihozápadní vítr 9 kt
Teplota 16°C
Vlhkost vzduchu 94%
Tlak 1016 hPa
Viditelnost 10 km a více
Skoro jasno ve výšce 1600 ft

METAR: EEKE 200150Z AUTO 20009KT 9999NDV FEW016 16/15 Q1016

Čas: 05:59 (02:59 UTC)

Předpověď počasí

Zpráva byla vytvořena před 12 hodinami a 59 minutami, v 14:00 UTC
Předpověď platná od 19 v 15 UTC do 19 v 21 UTC
Západojihozápadní vítr 12 kt
Viditelnost 10 km a více
Polojasno ve výšce 2500 ft

TAF: EEKE 191400Z 1915/1921 24012KT 9999 SCT025

Stav a předpovědi počasí z více než 4 000 letišť (zprávy METAR a TAF).

Červené a žluté tečky na mapě představují dostupné meteorologické stanice.

Když kurzor umístíte na tečku, zobrazí se název stanice.

Pak kliknutím zobrazíte stav a předpověď počasí.

Chcete-li změnit mapu, kliknutím na zelené tlačítko se znaménkem +mapu přiblížíte, kliknutím na zelené tlačítko se znaménkem – mapu oddálíte a kliknutím na zelené šipky přejdete na sousední mapy.


METAR-TAF: